createdAt,value
2019-04-26T00:02:25.189Z,98744.52
2019-04-26T00:07:30.810Z,98740.65
2019-04-26T00:12:45.120Z,98737.92
2019-04-26T00:17:54.734Z,98742.30
2019-04-26T00:23:00.241Z,98747.62
2019-04-26T00:28:05.686Z,98748.63
2019-04-26T00:33:12.398Z,98747.06
2019-04-26T00:38:18.292Z,98757.24
2019-04-26T00:43:24.972Z,98762.75
2019-04-26T00:48:32.577Z,98765.17
2019-04-26T00:53:39.694Z,98768.56
2019-04-26T00:58:45.341Z,98771.23
2019-04-26T01:03:50.924Z,98779.96
2019-04-26T01:08:56.233Z,98789.54
2019-04-26T01:14:01.714Z,98785.62
2019-04-26T01:19:08.900Z,98785.93
2019-04-26T01:24:18.253Z,98785.41
2019-04-26T01:29:26.382Z,98780.14
2019-04-26T01:34:33.613Z,98789.46
2019-04-26T01:39:41.782Z,98778.11
2019-04-26T01:45:01.203Z,98781.81
2019-04-26T01:50:07.761Z,98788.64
2019-04-26T01:55:13.851Z,98788.14
2019-04-26T02:00:28.073Z,98787.14
2019-04-26T02:05:33.691Z,98795.13
2019-04-26T02:10:39.302Z,98796.31
2019-04-26T02:15:44.742Z,98800.52
2019-04-26T02:20:57.542Z,98793.40
2019-04-26T02:26:12.001Z,98800.52
2019-04-26T02:31:17.728Z,98807.03
2019-04-26T02:36:25.362Z,98805.94
2019-04-26T02:41:33.493Z,98803.51
2019-04-26T02:46:50.822Z,98812.68
2019-04-26T02:52:03.924Z,98810.30
2019-04-26T02:57:09.502Z,98813.07
2019-04-26T03:02:21.913Z,98815.24
2019-04-26T03:07:44.213Z,98819.23
2019-04-26T03:12:52.850Z,98820.11
2019-04-26T03:18:11.053Z,98815.10
2019-04-26T03:23:41.811Z,98814.85
2019-04-26T03:28:44.483Z,98827.17
2019-04-26T03:34:01.788Z,98838.17
2019-04-26T03:39:23.032Z,98842.33
2019-04-26T03:44:38.996Z,98847.42
2019-04-26T03:49:57.912Z,98858.09
2019-04-26T03:55:08.743Z,98868.25
2019-04-26T04:00:26.203Z,98864.83
2019-04-26T04:05:44.196Z,98864.83
2019-04-26T04:10:55.841Z,98886.24
2019-04-26T04:16:01.965Z,98881.61
2019-04-26T04:21:22.433Z,98895.98
2019-04-26T04:26:39.603Z,98901.52
2019-04-26T04:31:49.344Z,98906.78
2019-04-26T04:36:57.873Z,98914.14
2019-04-26T04:42:22.444Z,98919.47
2019-04-26T04:47:37.164Z,98919.96
2019-04-26T04:52:51.765Z,98935.20
2019-04-26T04:58:06.093Z,98935.52
2019-04-26T05:03:28.623Z,98939.84
2019-04-26T05:08:51.182Z,98946.37
2019-04-26T05:14:04.423Z,98955.94
2019-04-26T05:19:27.097Z,98967.48
2019-04-26T05:24:40.461Z,98976.12
2019-04-26T05:29:56.155Z,98981.63
2019-04-26T05:35:12.518Z,98986.41
2019-04-26T05:40:35.273Z,99004.89
2019-04-26T05:46:04.153Z,99012.26
2019-04-26T05:51:34.236Z,99015.80
2019-04-26T05:57:02.715Z,99016.33
2019-04-26T06:02:32.041Z,99027.75
2019-04-26T06:07:58.528Z,99028.31
2019-04-26T06:13:28.003Z,99043.34
2019-04-26T06:18:47.873Z,99052.64
2019-04-26T06:24:07.052Z,99068.16
2019-04-26T06:29:20.230Z,99090.08
2019-04-26T06:34:39.344Z,99090.08
2019-04-26T06:40:02.853Z,99104.23
2019-04-26T06:45:30.983Z,99119.37
2019-04-26T06:50:44.372Z,99131.55
2019-04-26T06:56:03.014Z,99145.85
2019-04-26T07:01:25.946Z,99157.51
2019-04-26T07:06:38.810Z,99154.87
2019-04-26T07:12:05.774Z,99162.34
2019-04-26T07:17:17.672Z,99163.22
2019-04-26T07:22:41.370Z,99183.07
2019-04-26T07:28:03.850Z,99194.13
2019-04-26T07:33:19.978Z,99212.09
2019-04-26T07:38:54.636Z,99216.19
2019-04-26T07:44:20.901Z,99219.45
2019-04-26T07:49:53.552Z,99226.48
2019-04-26T07:55:26.433Z,99228.67
2019-04-26T08:00:44.990Z,99222.98
2019-04-26T08:06:01.581Z,99236.41
2019-04-26T08:11:12.951Z,99243.98
2019-04-26T08:16:30.540Z,99260.00
2019-04-26T08:21:42.609Z,99264.11
2019-04-26T08:26:55.084Z,99280.28
2019-04-26T08:32:05.413Z,99291.35
2019-04-26T08:37:19.669Z,99299.73
2019-04-26T08:42:30.533Z,99312.52
2019-04-26T08:47:45.977Z,99318.72
2019-04-26T08:52:57.876Z,99319.70
2019-04-26T08:58:08.160Z,99325.26
2019-04-26T09:03:25.678Z,99334.30
2019-04-26T09:08:39.163Z,99350.23
2019-04-26T09:13:49.871Z,99349.12
2019-04-26T09:18:59.439Z,99360.16
2019-04-26T09:24:10.190Z,99381.92
2019-04-26T09:29:30.527Z,99374.75
2019-04-26T09:34:36.623Z,99378.61
2019-04-26T09:39:43.411Z,99387.72
2019-04-26T09:44:57.037Z,99387.02
2019-04-26T09:50:11.346Z,99394.24
2019-04-26T09:55:17.803Z,99396.65
2019-04-26T10:00:27.851Z,99386.21
2019-04-26T10:05:34.030Z,99398.63
2019-04-26T10:10:39.772Z,99413.98
2019-04-26T10:15:58.057Z,99411.34
2019-04-26T10:21:01.475Z,99418.07
2019-04-26T10:26:07.296Z,99423.19
2019-04-26T10:31:13.537Z,99424.41
2019-04-26T10:36:21.215Z,99424.33
2019-04-26T10:41:33.663Z,99423.42
2019-04-26T10:46:34.394Z,99436.43
2019-04-26T10:51:45.330Z,99433.27
2019-04-26T10:56:55.250Z,99436.87
2019-04-26T11:02:00.781Z,99433.87
2019-04-26T11:07:06.553Z,99434.11
2019-04-26T11:12:16.248Z,99439.98
2019-04-26T11:17:21.920Z,99429.34
2019-04-26T11:22:29.354Z,99437.48
2019-04-26T11:27:34.435Z,99450.99
2019-04-26T11:32:40.220Z,99453.86
2019-04-26T11:37:50.504Z,99459.67
2019-04-26T11:42:54.141Z,99459.46
2019-04-26T11:47:59.655Z,99454.11
2019-04-26T11:53:06.142Z,99455.67
2019-04-26T11:58:12.571Z,99465.83
2019-04-26T12:03:21.151Z,99471.24
2019-04-26T12:08:32.502Z,99472.88
2019-04-26T12:13:38.121Z,99469.27
2019-04-26T12:18:44.093Z,99475.16
2019-04-26T12:23:51.278Z,99479.64
2019-04-26T12:28:58.469Z,99485.17
2019-04-26T12:34:04.121Z,99473.95
2019-04-26T12:39:11.864Z,99476.05
2019-04-26T12:44:17.384Z,99477.34
2019-04-26T12:49:24.271Z,99479.53
2019-04-26T12:54:30.374Z,99485.06
2019-04-26T12:59:43.904Z,99473.67
2019-04-26T13:04:44.528Z,99484.30
2019-04-26T13:10:01.016Z,99472.33
2019-04-26T13:15:32.430Z,99475.13
2019-04-26T13:20:39.183Z,99480.44
2019-04-26T13:25:44.781Z,99480.18
2019-04-26T13:30:50.297Z,99476.91
2019-04-26T13:36:02.855Z,99478.42
2019-04-26T13:41:04.629Z,99469.73
2019-04-26T13:46:19.003Z,99467.16
2019-04-26T13:51:25.715Z,99466.44
2019-04-26T13:56:32.099Z,99470.80
2019-04-26T14:01:38.344Z,99457.88
2019-04-26T14:06:43.836Z,99455.41
2019-04-26T14:11:49.603Z,99460.41
2019-04-26T14:16:55.764Z,99456.59
2019-04-26T14:22:03.209Z,99448.09
2019-04-26T14:27:15.300Z,99423.94
2019-04-26T14:32:23.382Z,99426.88
2019-04-26T14:37:29.524Z,99422.92
2019-04-26T14:42:42.193Z,99414.84
2019-04-26T14:47:47.654Z,99391.00
2019-04-26T14:52:49.796Z,99402.87
2019-04-26T14:57:56.864Z,99396.06
2019-04-26T15:03:12.301Z,99377.47
2019-04-26T15:08:18.021Z,99363.14
2019-04-26T15:13:23.705Z,99373.40
2019-04-26T15:18:33.348Z,99365.95
2019-04-26T15:23:37.169Z,99360.29
2019-04-26T15:28:43.679Z,99362.95
2019-04-26T15:33:50.179Z,99353.86
2019-04-26T15:38:56.475Z,99335.48
2019-04-26T15:44:11.363Z,99326.22
2019-04-26T15:49:29.796Z,99325.99
2019-04-26T15:54:34.823Z,99310.23
2019-04-26T15:59:40.264Z,99287.28
2019-04-26T16:04:47.444Z,99275.37
2019-04-26T16:09:53.854Z,99284.78
2019-04-26T16:14:59.898Z,99256.67
2019-04-26T16:20:07.321Z,99241.58
2019-04-26T16:25:12.982Z,99240.03
2019-04-26T16:30:28.401Z,99261.76
2019-04-26T16:35:35.910Z,99233.34
2019-04-26T16:40:47.562Z,99232.19
2019-04-26T16:45:48.805Z,99233.33
2019-04-26T16:50:54.512Z,99232.20
2019-04-26T16:56:00.073Z,99229.92
2019-04-26T17:01:10.123Z,99214.52
2019-04-26T17:06:14.567Z,99207.55
2019-04-26T17:11:20.445Z,99209.23
2019-04-26T17:16:29.607Z,99179.17
2019-04-26T17:21:38.159Z,99176.08
2019-04-26T17:26:50.127Z,99191.25
2019-04-26T17:31:55.813Z,99207.12
2019-04-26T17:37:09.382Z,99226.92
2019-04-26T17:42:10.955Z,99216.29
2019-04-26T17:47:16.445Z,99227.25
2019-04-26T17:52:25.016Z,99229.13
2019-04-26T17:57:34.712Z,99230.66
2019-04-26T18:02:42.168Z,99239.11
2019-04-26T18:07:56.256Z,99228.34
2019-04-26T18:12:54.118Z,99249.23
2019-04-26T18:18:09.703Z,99247.66
2019-04-26T18:23:18.574Z,99237.27
2019-04-26T18:28:25.089Z,99240.38
2019-04-26T18:33:32.877Z,99251.52
2019-04-26T18:38:38.341Z,99265.75
2019-04-26T18:43:43.743Z,99253.44
2019-04-26T18:48:49.238Z,99259.70
2019-04-26T18:54:05.026Z,99264.59
2019-04-26T18:59:13.488Z,99267.43
2019-04-26T19:04:19.025Z,99277.19
2019-04-26T19:09:28.196Z,99289.89
2019-04-26T19:14:49.586Z,99291.31
2019-04-26T19:20:03.136Z,99295.16
2019-04-26T19:25:18.937Z,99294.15
2019-04-26T19:30:17.169Z,99294.44
2019-04-26T19:35:22.890Z,99309.03
2019-04-26T19:40:28.458Z,99326.03
2019-04-26T19:45:46.137Z,99326.30
2019-04-26T19:50:57.244Z,99325.75
2019-04-26T19:56:11.167Z,99328.70
2019-04-26T20:01:20.733Z,99328.97
2019-04-26T20:06:26.718Z,99333.02
2019-04-26T20:11:31.904Z,99345.80
2019-04-26T20:16:40.751Z,99363.18
2019-04-26T20:21:49.625Z,99351.56
2019-04-26T20:26:54.381Z,99362.44
2019-04-26T20:32:07.481Z,99361.15
2019-04-26T20:37:16.159Z,99379.42
2019-04-26T20:42:22.346Z,99373.02
2019-04-26T20:47:27.996Z,99376.56
2019-04-26T20:52:33.735Z,99374.77
2019-04-26T20:57:42.057Z,99389.14
2019-04-26T21:02:46.595Z,99417.77
2019-04-26T21:07:52.403Z,99391.89
2019-04-26T21:12:57.893Z,99401.41
2019-04-26T21:18:04.246Z,99402.25
2019-04-26T21:23:10.294Z,99399.24
2019-04-26T21:28:29.072Z,99393.31
2019-04-26T21:33:42.938Z,99398.84
2019-04-26T21:38:53.014Z,99396.59
2019-04-26T21:43:59.061Z,99412.92
2019-04-26T21:49:04.524Z,99400.07
2019-04-26T21:54:10.257Z,99406.45
2019-04-26T21:59:16.055Z,99383.20
2019-04-26T22:04:22.770Z,99439.91
2019-04-26T22:09:48.238Z,99444.96
2019-04-26T22:15:03.487Z,99435.88
2019-04-26T22:20:19.156Z,99434.99
2019-04-26T22:25:26.343Z,99448.73
2019-04-26T22:30:33.132Z,99446.05
2019-04-26T22:35:38.821Z,99444.02
2019-04-26T22:40:44.221Z,99437.39
2019-04-26T22:45:54.223Z,99437.44
2019-04-26T22:50:59.897Z,99441.55
2019-04-26T22:56:05.634Z,99465.49
2019-04-26T23:01:11.337Z,99455.70
2019-04-26T23:06:17.097Z,99451.06
2019-04-26T23:11:23.165Z,99435.70
2019-04-26T23:16:44.324Z,99454.91
2019-04-26T23:21:52.870Z,99454.25
2019-04-26T23:26:55.562Z,99452.64
2019-04-26T23:32:01.063Z,99461.14
2019-04-26T23:37:06.583Z,99469.14
2019-04-26T23:42:12.218Z,99444.37
2019-04-26T23:47:23.004Z,99468.25
2019-04-26T23:52:25.968Z,99467.81
2019-04-26T23:57:34.734Z,99481.58
